Time;durP1;ratioP1;P1;durP2;ratioP2;P2;SDS_P1;SDS_P2;PMS_P1;PMS_P2;Temp;Humidity;BMP_temperature;BMP_pressure;BME280_temperature;BME280_humidity;BME280_pressure;Samples;Min_cycle;Max_cycle;Signal;HPM_P1;HPM_P2
2022/10/09 00:02:38;;;;;;;7.80;3.58;;;;;;;10.08;63.20;101269.72;10411827;28;20068;-72
2022/10/09 00:07:39;;;;;;;7.00;3.80;;;;;;;10.04;63.06;101268.31;10444861;28;20033;-76
2022/10/09 00:12:41;;;;;;;6.38;3.47;;;;;;;9.99;63.30;101267.94;10444460;28;20491;-74
2022/10/09 00:17:43;;;;;;;7.85;3.67;;;;;;;9.87;63.53;101269.13;10446378;28;20103;-74
2022/10/09 00:22:44;;;;;;;8.23;4.45;;;;;;;9.82;63.87;101274.09;10422735;28;20076;-73
2022/10/09 00:27:46;;;;;;;7.55;3.75;;;;;;;9.78;63.44;101270.03;10427960;28;20044;-70
2022/10/09 00:32:47;;;;;;;6.85;3.90;;;;;;;9.71;63.58;101267.91;10426524;28;20128;-72
2022/10/09 00:37:49;;;;;;;8.07;3.88;;;;;;;9.65;63.62;101268.50;10444772;28;20049;-73
2022/10/09 00:42:57;;;;;;;11.05;4.43;;;;;;;9.58;64.02;101267.41;10444093;28;20070;-73
2022/10/09 00:48:05;;;;;;;8.02;4.22;;;;;;;9.46;63.92;101274.78;10443894;28;20140;-75
2022/10/09 00:53:12;;;;;;;7.97;4.28;;;;;;;9.44;64.07;101273.22;10442184;28;20037;-75
2022/10/09 00:58:13;;;;;;;6.27;4.30;;;;;;;9.39;64.30;101286.25;10441199;28;20454;-75
2022/10/09 01:03:15;;;;;;;9.07;3.58;;;;;;;9.30;64.60;101277.22;10444354;28;20526;-73
2022/10/09 01:08:26;;;;;;;6.22;3.85;;;;;;;9.29;64.50;101278.22;10425019;28;20549;-74
2022/10/09 01:13:49;;;;;;;5.90;3.50;;;;;;;9.24;64.74;101281.34;10440544;28;20602;-74
2022/10/09 01:19:00;;;;;;;10.35;4.20;;;;;;;9.11;64.68;101272.75;10425741;28;20125;-73
2022/10/09 01:24:24;;;;;;;9.60;4.65;;;;;;;8.98;65.41;101280.25;10443990;28;20065;-73
2022/10/09 01:29:34;;;;;;;14.55;4.50;;;;;;;8.99;65.41;101266.69;10441101;28;20583;-75
2022/10/09 01:34:38;;;;;;;4.82;3.72;;;;;;;8.99;65.51;101257.81;10442544;28;20095;-74
2022/10/09 01:39:42;;;;;;;7.47;3.70;;;;;;;8.93;65.67;101252.03;10425272;28;20140;-74
2022/10/09 01:44:44;;;;;;;6.53;3.28;;;;;;;8.88;65.92;101256.13;10440440;28;20037;-75
2022/10/09 01:50:16;;;;;;;6.60;3.30;;;;;;;8.83;65.62;101251.19;10441197;28;20041;-74
2022/10/09 01:55:32;;;;;;;5.60;3.38;;;;;;;8.76;66.00;101250.06;10439510;28;20442;-76
2022/10/09 02:00:40;;;;;;;7.90;2.70;;;;;;;8.71;65.71;101239.78;10437831;28;20136;-72
2022/10/09 02:05:45;;;;;;;9.20;3.40;;;;;;;8.75;65.50;101240.34;10424255;28;20098;-75
2022/10/09 02:10:52;;;;;;;5.90;3.30;;;;;;;8.64;66.56;101235.13;10447438;28;20410;-75
2022/10/09 02:16:02;;;;;;;9.93;3.70;;;;;;;8.71;66.17;101226.38;10421203;28;20067;-70
2022/10/09 02:21:14;;;;;;;6.80;3.58;;;;;;;8.73;66.38;101232.44;10445074;28;20631;-72
2022/10/09 02:26:17;;;;;;;9.38;6.43;;;;;;;8.76;65.73;101236.66;10442871;28;20076;-74
2022/10/09 02:31:26;;;;;;;10.15;5.65;;;;;;;8.74;65.92;101233.28;10429166;28;20060;-74
2022/10/09 02:36:29;;;;;;;10.13;5.63;;;;;;;8.76;66.39;101230.47;10428485;28;20029;-74
2022/10/09 02:41:31;;;;;;;10.93;6.20;;;;;;;8.74;66.06;101225.22;10428781;28;20064;-73
2022/10/09 02:46:33;;;;;;;9.52;5.50;;;;;;;8.72;66.58;101224.53;10388431;28;1047529;-73
2022/10/09 02:51:34;;;;;;;8.57;5.65;;;;;;;8.67;66.33;101233.00;10431427;28;20124;-75
2022/10/09 02:56:36;;;;;;;10.85;6.22;;;;;;;8.66;66.44;101235.81;10448793;28;20041;-71
2022/10/09 03:01:39;;;;;;;10.68;5.97;;;;;;;8.47;66.98;101237.53;10448389;28;20045;-75
2022/10/09 03:06:41;;;;;;;9.27;5.97;;;;;;;8.29;66.91;101236.47;10447826;28;20033;-74
2022/10/09 03:11:42;;;;;;;10.95;5.82;;;;;;;8.16;67.20;101234.06;10430167;28;20100;-75
2022/10/09 03:16:43;;;;;;;10.48;5.47;;;;;;;8.16;67.25;101230.56;10426598;28;20132;-75
2022/10/09 03:21:45;;;;;;;9.95;5.75;;;;;;;8.11;66.90;101229.09;10445905;28;20083;-69
2022/10/09 03:26:46;;;;;;;12.32;5.75;;;;;;;8.14;67.34;101228.00;10449558;28;20136;-75
2022/10/09 03:31:48;;;;;;;12.70;5.88;;;;;;;8.12;66.94;101230.81;10422060;28;20073;-74
2022/10/09 03:36:53;;;;;;;9.38;5.50;;;;;;;8.12;67.01;101236.16;10446708;28;20037;-72
2022/10/09 03:41:54;;;;;;;9.85;5.38;;;;;;;8.14;67.29;101234.19;10447005;28;20131;-73
2022/10/09 03:46:56;;;;;;;8.30;5.25;;;;;;;8.18;66.83;101229.41;10444811;28;20128;-72
2022/10/09 03:51:57;;;;;;;11.63;5.25;;;;;;;8.17;67.21;101234.91;10445479;28;20136;-75
2022/10/09 03:56:59;;;;;;;7.15;5.10;;;;;;;8.17;67.63;101240.25;10445968;28;20144;-76
2022/10/09 04:02:00;;;;;;;7.72;5.55;;;;;;;8.14;66.79;101236.03;10444893;28;20521;-70
2022/10/09 04:07:02;;;;;;;6.47;4.72;;;;;;;8.16;67.40;101243.94;10446546;28;20116;-75
2022/10/09 04:12:03;;;;;;;12.68;5.40;;;;;;;8.11;67.26;101247.84;10446114;28;20079;-72
2022/10/09 04:17:06;;;;;;;9.13;4.63;;;;;;;8.07;66.63;101245.59;10427332;28;20064;-74
2022/10/09 04:22:07;;;;;;;7.55;5.18;;;;;;;8.01;67.14;101243.47;10444015;28;20076;-76
2022/10/09 04:27:08;;;;;;;6.80;5.05;;;;;;;7.95;67.40;101236.84;10444797;28;20118;-73
2022/10/09 04:32:10;;;;;;;7.93;3.85;;;;;;;7.91;67.18;101236.25;10442085;28;20128;-75
2022/10/09 04:37:11;;;;;;;12.07;5.15;;;;;;;7.84;67.50;101235.13;10427658;28;20128;-75
2022/10/09 04:42:12;;;;;;;12.75;3.88;;;;;;;7.83;67.33;101238.78;10445111;28;20511;-72
2022/10/09 04:47:14;;;;;;;6.57;3.50;;;;;;;7.80;66.82;101236.38;10445164;28;20102;-75
2022/10/09 04:52:16;;;;;;;6.03;3.90;;;;;;;7.80;67.41;101238.19;10439996;28;20047;-73
2022/10/09 04:57:17;;;;;;;7.05;4.15;;;;;;;7.74;67.29;101228.88;10443560;28;20141;-72
2022/10/09 05:02:19;;;;;;;7.15;3.75;;;;;;;7.65;67.40;101232.38;10444343;28;20523;-74
2022/10/09 05:07:20;;;;;;;6.90;3.92;;;;;;;7.66;67.70;101234.06;10443551;28;20067;-73
2022/10/09 05:12:22;;;;;;;9.50;4.28;;;;;;;7.62;67.24;101232.63;10417070;28;20056;-76
2022/10/09 05:17:23;;;;;;;10.50;4.43;;;;;;;7.55;66.79;101229.66;10413799;28;20057;-74
2022/10/09 05:22:25;;;;;;;9.48;4.13;;;;;;;7.24;67.99;101226.97;10440597;28;20056;-73
2022/10/09 05:27:26;;;;;;;10.90;5.57;;;;;;;7.14;68.15;101224.25;10443174;28;20141;-76
2022/10/09 05:32:27;;;;;;;9.73;4.47;;;;;;;7.07;67.98;101239.13;10443522;28;20128;-74
2022/10/09 05:37:29;;;;;;;8.60;4.43;;;;;;;7.10;67.12;101238.00;10443199;28;20068;-67
2022/10/09 05:42:30;;;;;;;5.72;4.13;;;;;;;7.20;67.43;101238.91;10446980;28;20044;-68
2022/10/09 05:47:32;;;;;;;7.65;5.13;;;;;;;7.29;67.96;101229.28;10424948;28;20053;-69
2022/10/09 05:52:34;;;;;;;7.45;4.80;;;;;;;7.31;67.37;101241.53;10448929;28;20124;-68
2022/10/09 05:57:36;;;;;;;7.80;4.00;;;;;;;7.38;67.98;101241.81;10410038;28;20053;-68
2022/10/09 06:02:37;;;;;;;8.15;4.50;;;;;;;7.43;68.00;101239.59;10449056;28;20041;-68
2022/10/09 06:07:39;;;;;;;7.07;4.97;;;;;;;7.47;67.55;101229.50;10451274;28;20072;-67
2022/10/09 06:12:40;;;;;;;5.85;3.75;;;;;;;7.53;66.72;101235.16;10448725;28;20128;-67
2022/10/09 06:17:42;;;;;;;8.85;4.75;;;;;;;7.49;67.04;101228.38;10451228;28;20106;-67
2022/10/09 06:22:43;;;;;;;4.20;3.45;;;;;;;7.52;67.37;101237.94;10450916;28;20041;-68
2022/10/09 06:27:45;;;;;;;8.43;4.63;;;;;;;7.56;67.29;101236.69;10450455;28;20033;-69
2022/10/09 06:32:46;;;;;;;11.93;4.53;;;;;;;7.65;67.40;101232.38;10450481;28;20041;-69
2022/10/09 06:37:48;;;;;;;7.70;4.53;;;;;;;7.71;66.93;101232.66;10449818;28;20067;-67
2022/10/09 06:42:49;;;;;;;10.48;5.43;;;;;;;7.79;67.52;101234.69;10449252;28;20120;-68
2022/10/09 06:47:52;;;;;;;9.45;5.30;;;;;;;7.90;67.15;101239.09;10447619;28;20048;-68
2022/10/09 06:52:53;;;;;;;7.70;4.78;;;;;;;7.94;67.78;101244.03;10431220;28;20124;-68
2022/10/09 06:57:55;;;;;;;10.38;5.53;;;;;;;8.11;67.16;101250.53;10449280;28;20065;-69
2022/10/09 07:02:56;;;;;;;8.27;5.28;;;;;;;8.22;68.19;101246.06;10431213;28;20458;-68
2022/10/09 07:07:58;;;;;;;5.15;4.57;;;;;;;8.38;67.21;101254.41;10446940;28;20619;-67
2022/10/09 07:12:59;;;;;;;8.57;4.90;;;;;;;8.55;67.26;101244.88;10446380;28;20700;-68
2022/10/09 07:18:01;;;;;;;8.13;5.15;;;;;;;8.68;67.80;101249.94;10448857;28;20072;-66
2022/10/09 07:23:03;;;;;;;6.70;4.82;;;;;;;8.81;67.29;101250.50;10429854;28;20045;-66
2022/10/09 07:28:04;;;;;;;10.48;4.72;;;;;;;9.02;67.50;101252.16;10449425;28;20059;-67
2022/10/09 07:33:06;;;;;;;8.75;5.00;;;;;;;9.18;67.61;101249.72;10447486;28;20152;-68
2022/10/09 07:38:07;;;;;;;9.60;4.15;;;;;;;9.33;67.87;101253.63;10448218;28;20106;-68
2022/10/09 07:43:09;;;;;;;4.70;4.05;;;;;;;9.55;67.71;101248.91;10448160;28;20132;-69
2022/10/09 07:48:11;;;;;;;8.05;5.25;;;;;;;9.76;67.69;101255.91;10444369;28;20045;-67
2022/10/09 07:53:13;;;;;;;8.18;4.50;;;;;;;9.92;67.37;101250.72;10443106;28;20495;-67
2022/10/09 07:58:16;;;;;;;5.72;3.72;;;;;;;10.11;67.58;101244.38;10447638;28;20056;-69
2022/10/09 08:03:17;;;;;;;5.78;4.07;;;;;;;10.35;67.31;101249.22;10442735;28;20127;-67
2022/10/09 08:08:18;;;;;;;3.67;3.28;;;;;;;10.54;67.38;101244.69;10444375;28;20053;-69
2022/10/09 08:13:20;;;;;;;6.55;4.15;;;;;;;10.77;67.16;101245.06;10421449;28;20114;-68
2022/10/09 08:18:21;;;;;;;5.75;3.25;;;;;;;11.00;67.15;101242.72;10443556;28;20076;-69
2022/10/09 08:23:23;;;;;;;4.07;2.53;;;;;;;11.21;67.08;101237.00;10444979;28;20057;-68
2022/10/09 08:28:24;;;;;;;4.53;2.28;;;;;;;11.38;66.86;101228.00;10429088;28;20069;-68
2022/10/09 08:33:26;;;;;;;4.63;2.10;;;;;;;11.60;66.73;101215.84;10428218;28;20040;-68
2022/10/09 08:38:27;;;;;;;7.15;2.08;;;;;;;11.80;66.20;101223.66;10440613;28;20033;-68
2022/10/09 08:44:01;;;;;;;4.32;2.00;;;;;;;12.01;66.12;101226.81;10439493;28;20115;-68
2022/10/09 08:49:03;;;;;;;5.60;2.35;;;;;;;12.21;65.85;101218.44;10426080;28;20045;-68
2022/10/09 08:54:14;;;;;;;6.18;2.03;;;;;;;12.40;65.49;101215.44;10442249;28;20040;-69
2022/10/09 08:59:16;;;;;;;6.85;2.50;;;;;;;12.62;64.96;101196.94;10424934;28;20045;-69
2022/10/09 09:04:23;;;;;;;8.10;1.42;;;;;;;12.86;64.53;101199.59;10439757;28;20083;-69
2022/10/09 09:09:38;;;;;;;;;;;;;;;13.07;64.31;101195.50;10422870;28;20079;-69
2022/10/09 09:14:58;;;;;;;5.88;1.45;;;;;;;13.24;63.32;101189.06;10439489;28;19928;-69
2022/10/09 09:20:23;;;;;;;4.63;1.35;;;;;;;13.43;63.53;101185.16;10441875;28;20133;-69
2022/10/09 09:25:33;;;;;;;1.65;1.10;;;;;;;13.59;62.61;101181.56;10433934;28;20156;-68
2022/10/09 09:30:42;;;;;;;5.15;1.15;;;;;;;13.80;62.38;101164.75;10439160;28;20441;-69
2022/10/09 09:36:06;;;;;;;3.03;1.40;;;;;;;14.03;61.70;101159.38;10441824;28;20069;-69
2022/10/09 09:41:07;;;;;;;2.17;1.50;;;;;;;14.22;61.51;101154.53;10417833;28;20053;-68
2022/10/09 09:46:15;;;;;;;7.72;1.10;;;;;;;14.40;61.34;101144.22;10438900;28;20131;-68
2022/10/09 09:51:25;;;;;;;4.10;1.33;;;;;;;14.61;60.88;101137.31;10445046;28;20095;-68
2022/10/09 09:56:39;;;;;;;4.60;1.27;;;;;;;14.83;60.18;101119.34;10415231;28;20119;-68
2022/10/09 10:02:09;;;;;;;5.80;1.60;;;;;;;14.92;60.24;101109.28;10440682;28;20407;-69
2022/10/09 10:07:10;;;;;;;2.95;1.08;;;;;;;15.17;59.84;101107.97;10422986;28;20124;-68
2022/10/09 10:12:20;;;;;;;4.45;1.30;;;;;;;15.34;59.12;101088.81;10440746;28;20064;-68
2022/10/09 10:17:28;;;;;;;6.30;0.95;;;;;;;15.53;58.72;101090.09;10438258;28;20057;-69
2022/10/09 10:22:30;;;;;;;4.00;1.30;;;;;;;15.77;58.25;101078.91;10424635;28;20136;-68
2022/10/09 10:27:40;;;;;;;2.90;0.80;;;;;;;15.88;58.01;101077.59;10439039;28;20546;-68
2022/10/09 10:33:20;;;;;;;1.75;0.98;;;;;;;16.14;57.18;101074.28;10446075;28;20069;-67
2022/10/09 10:38:29;;;;;;;3.33;0.90;;;;;;;16.43;56.51;101058.88;10448918;28;20064;-68
2022/10/09 10:43:40;;;;;;;2.88;0.75;;;;;;;16.64;55.65;101060.69;10447949;28;20128;-68
2022/10/09 10:48:47;;;;;;;3.47;1.10;;;;;;;16.81;54.69;101048.50;10447723;28;20868;-68
2022/10/09 10:53:48;;;;;;;3.60;0.70;;;;;;;17.03;54.49;101040.25;10447406;28;20071;-69
2022/10/09 10:59:23;;;;;;;2.92;0.60;;;;;;;17.23;53.40;101041.19;10427701;28;20595;-68
2022/10/09 11:04:50;;;;;;;1.90;0.60;;;;;;;17.34;52.97;101020.75;10447557;28;20132;-69
2022/10/09 11:10:06;;;;;;;1.30;0.60;;;;;;;17.53;52.38;101016.38;10446514;28;20065;-70
2022/10/09 11:15:37;;;;;;;0.70;0.40;;;;;;;17.67;51.58;101011.81;10421176;28;20124;-68
2022/10/09 11:20:55;;;;;;;1.63;0.40;;;;;;;17.84;50.36;101001.44;10429553;28;20068;-68
2022/10/09 11:26:07;;;;;;;;;;;;;;;18.00;51.06;100994.72;10447401;28;20132;-68
2022/10/09 11:31:13;;;;;;;1.83;0.40;;;;;;;18.12;48.86;100989.50;10447297;28;19986;-68
2022/10/09 11:36:32;;;;;;;3.80;0.80;;;;;;;18.24;47.89;100974.19;10445780;28;20388;-71
2022/10/09 11:41:35;;;;;;;3.88;0.40;;;;;;;18.50;47.23;100975.19;10443811;28;20114;-72
2022/10/09 11:46:45;;;;;;;5.05;0.60;;;;;;;18.78;45.86;100958.59;10444784;28;20099;-67
2022/10/09 11:51:55;;;;;;;2.45;0.40;;;;;;;19.09;45.08;100949.66;10445751;28;20060;-69
2022/10/09 11:56:59;;;;;;;3.20;0.90;;;;;;;19.41;44.54;100938.78;10427605;28;20045;-71
2022/10/09 12:02:20;;;;;;;3.72;0.40;;;;;;;19.75;43.66;100926.59;10428949;28;20044;-70
2022/10/09 12:07:39;;;;;;;1.58;0.32;;;;;;;19.86;43.03;100919.56;10445411;28;20047;-70
2022/10/09 12:12:41;;;;;;;1.50;0.32;;;;;;;20.03;42.43;100902.66;10445990;28;20037;-70
2022/10/09 12:17:48;;;;;;;2.42;0.55;;;;;;;20.21;41.84;100900.75;10445782;28;20029;-70
2022/10/09 12:22:56;;;;;;;3.58;0.50;;;;;;;20.58;41.34;100894.47;10445327;28;20182;-70
2022/10/09 12:28:27;;;;;;;1.08;0.30;;;;;;;21.38;39.97;100885.19;10445631;28;20071;-69
2022/10/09 12:33:37;;;;;;;3.75;0.77;;;;;;;21.69;38.78;100881.34;10440495;28;20049;-70
2022/10/09 12:38:39;;;;;;;1.63;0.40;;;;;;;21.86;38.72;100881.47;10446155;28;20071;-69
2022/10/09 12:43:44;;;;;;;1.15;0.30;;;;;;;21.89;37.19;100880.97;10443321;28;20053;-69
2022/10/09 12:48:46;;;;;;;2.10;0.30;;;;;;;21.89;37.02;100870.03;10442663;28;20067;-70
2022/10/09 12:53:50;;;;;;;4.85;1.30;;;;;;;22.11;36.22;100869.41;10442746;28;20033;-70
2022/10/09 12:58:52;;;;;;;0.88;0.28;;;;;;;22.22;35.25;100852.16;10441298;28;20110;-70
2022/10/09 13:03:59;;;;;;;1.85;0.28;;;;;;;22.45;34.94;100854.00;10420896;28;20098;-69
2022/10/09 13:09:06;;;;;;;2.25;0.30;;;;;;;22.56;33.85;100844.09;10440570;28;20091;-69
2022/10/09 13:14:24;;;;;;;1.45;0.30;;;;;;;22.43;34.12;100831.50;10444187;28;20067;-69
2022/10/09 13:19:30;;;;;;;1.30;0.28;;;;;;;22.67;34.64;100829.53;10444098;28;20805;-69
2022/10/09 13:24:32;;;;;;;0.73;0.40;;;;;;;22.64;34.08;100824.53;10425027;28;20415;-69
2022/10/09 13:29:33;;;;;;;2.15;0.88;;;;;;;22.77;33.80;100807.78;10423580;28;20076;-70
2022/10/09 13:34:35;;;;;;;1.40;0.40;;;;;;;22.89;33.77;100802.25;10444255;28;20124;-70
2022/10/09 13:39:36;;;;;;;3.28;0.40;;;;;;;22.88;33.34;100794.25;10444270;28;20049;-69
2022/10/09 13:44:38;;;;;;;5.20;0.30;;;;;;;22.71;33.20;100784.13;10444708;28;20129;-69
2022/10/09 13:49:39;;;;;;;1.40;0.30;;;;;;;22.78;33.17;100781.22;10443710;28;20151;-69
2022/10/09 13:54:41;;;;;;;2.08;0.30;;;;;;;22.76;32.37;100780.63;10442426;28;20045;-70
2022/10/09 13:59:42;;;;;;;4.25;0.40;;;;;;;22.56;32.97;100778.34;10443470;28;20095;-69
2022/10/09 14:04:44;;;;;;;1.90;0.30;;;;;;;22.57;32.66;100767.13;10444993;28;20091;-70
2022/10/09 14:09:45;;;;;;;0.22;0.20;;;;;;;22.55;32.73;100758.34;10453498;28;20044;-68
2022/10/09 14:14:47;;;;;;;4.22;0.25;;;;;;;22.42;32.32;100747.66;10461929;28;20064;-67
2022/10/09 14:19:48;;;;;;;0.43;0.20;;;;;;;22.34;32.46;100737.94;10459992;28;20080;-68
2022/10/09 14:24:49;;;;;;;2.45;0.30;;;;;;;22.35;32.39;100731.41;10465669;28;20052;-66
2022/10/09 14:29:51;;;;;;;2.28;0.77;;;;;;;22.25;32.69;100722.97;10487366;28;20033;-70
2022/10/09 14:34:57;;;;;;;5.18;0.32;;;;;;;22.09;33.03;100713.56;10476362;28;20539;-70
2022/10/09 14:39:58;;;;;;;0.20;0.13;;;;;;;21.98;33.11;100701.59;10458106;28;20068;-69
2022/10/09 14:45:00;;;;;;;1.00;0.20;;;;;;;21.94;32.98;100705.91;10446908;28;20325;-70
2022/10/09 14:50:02;;;;;;;0.70;0.20;;;;;;;21.94;32.96;100694.13;10447549;28;20171;-70
2022/10/09 14:55:04;;;;;;;1.40;0.38;;;;;;;22.02;33.12;100690.16;10491055;28;20033;-68
2022/10/09 15:00:08;;;;;;;1.40;0.40;;;;;;;22.05;32.46;100682.28;10499099;28;20040;-67
2022/10/09 15:05:09;;;;;;;5.10;0.80;;;;;;;21.84;32.40;100680.22;10502532;22;20030;-66
2022/10/09 15:10:13;;;;;;;9.63;5.15;;;;;;;21.59;32.98;100673.97;10461410;28;20024;-65
2022/10/09 15:15:15;;;;;;;13.05;6.90;;;;;;;21.52;32.60;100670.53;10444190;28;20049;-66
2022/10/09 15:20:16;;;;;;;1.55;0.77;;;;;;;21.28;33.66;100666.16;10490744;28;20066;-66
2022/10/09 15:25:17;;;;;;;0.98;0.30;;;;;;;21.26;33.55;100663.66;10494996;28;20120;-67
2022/10/09 15:30:19;;;;;;;1.00;0.30;;;;;;;21.13;33.53;100658.41;10477932;28;20036;-65
2022/10/09 15:35:20;;;;;;;0.80;0.30;;;;;;;20.90;34.20;100654.63;10500091;28;20033;-67
2022/10/09 15:40:21;;;;;;;3.50;0.40;;;;;;;20.64;34.37;100650.47;10496490;28;20021;-66
2022/10/09 15:45:23;;;;;;;1.13;0.43;;;;;;;20.49;34.67;100647.31;10498534;28;20029;-65
2022/10/09 15:50:25;;;;;;;1.58;0.30;;;;;;;20.50;34.50;100643.53;10497000;28;20047;-66
2022/10/09 15:55:26;;;;;;;0.95;0.20;;;;;;;20.39;34.42;100636.94;10487311;28;20052;-65
2022/10/09 16:00:28;;;;;;;1.25;0.30;;;;;;;20.18;34.64;100627.38;10470257;28;20052;-68
2022/10/09 16:05:29;;;;;;;2.08;0.20;;;;;;;19.97;35.28;100628.75;10450759;28;20080;-68
2022/10/09 16:10:32;;;;;;;3.72;0.30;;;;;;;19.73;35.66;100625.09;10447571;28;20128;-68
2022/10/09 16:15:33;;;;;;;2.45;0.40;;;;;;;19.49;36.21;100621.34;10445690;28;20391;-70
2022/10/09 16:20:36;;;;;;;1.90;0.40;;;;;;;19.21;36.54;100618.13;10447536;28;20068;-69
2022/10/09 16:25:39;;;;;;;1.92;0.40;;;;;;;19.04;36.81;100614.31;10435428;28;20054;-68
2022/10/09 16:30:44;;;;;;;0.57;0.30;;;;;;;18.82;37.35;100611.19;10442303;28;20150;-69
2022/10/09 16:35:45;;;;;;;1.05;0.47;;;;;;;18.60;38.00;100611.56;10438361;28;20499;-71
2022/10/09 16:40:48;;;;;;;3.65;0.55;;;;;;;18.39;38.34;100611.94;10427054;28;20037;-70
2022/10/09 16:46:30;;;;;;;1.98;0.40;;;;;;;18.14;38.75;100612.72;10459399;28;20110;-70
2022/10/09 16:51:34;;;;;;;3.03;0.65;;;;;;;17.95;39.22;100611.81;10445990;28;20064;-70
2022/10/09 16:56:37;;;;;;;3.60;1.40;;;;;;;17.71;40.30;100612.53;10431839;28;20048;-68
2022/10/09 17:01:43;;;;;;;7.20;1.83;;;;;;;17.48;41.13;100613.91;10422344;28;20033;-68
2022/10/09 17:06:45;;;;;;;6.28;1.60;;;;;;;17.23;42.25;100617.31;10456186;28;20406;-69
2022/10/09 17:11:47;;;;;;;4.88;2.78;;;;;;;17.03;43.29;100611.09;10456978;28;20099;-69
2022/10/09 17:16:48;;;;;;;10.30;5.13;;;;;;;16.78;44.07;100609.00;10453313;28;20057;-70
2022/10/09 17:21:50;;;;;;;9.65;5.45;;;;;;;16.53;44.60;100613.41;10433807;28;20120;-72
2022/10/09 17:26:52;;;;;;;8.05;3.72;;;;;;;16.26;45.47;100619.66;10441743;28;20128;-72
2022/10/09 17:31:53;;;;;;;5.60;3.17;;;;;;;16.06;45.33;100610.66;10439410;28;20072;-69
2022/10/09 17:36:55;;;;;;;13.70;8.15;;;;;;;15.84;46.22;100616.25;10425334;28;20037;-69
2022/10/09 17:41:56;;;;;;;7.85;4.63;;;;;;;15.62;46.97;100614.66;10445168;28;20068;-70
2022/10/09 17:46:59;;;;;;;7.05;3.75;;;;;;;15.42;47.46;100617.28;10441053;28;20135;-69
2022/10/09 17:52:01;;;;;;;3.75;1.75;;;;;;;15.13;48.26;100610.28;10429502;28;20052;-71
2022/10/09 17:57:05;;;;;;;2.55;1.00;;;;;;;14.95;48.90;100610.78;10430953;28;20135;-71
2022/10/09 18:02:06;;;;;;;5.30;0.98;;;;;;;14.76;49.28;100607.75;10429031;28;20044;-70
2022/10/09 18:07:08;;;;;;;3.83;1.67;;;;;;;14.62;49.84;100603.28;10445857;28;20127;-72
2022/10/09 18:12:09;;;;;;;5.57;1.40;;;;;;;14.45;50.45;100597.25;10446797;28;20450;-69
2022/10/09 18:17:11;;;;;;;4.38;2.80;;;;;;;14.29;51.16;100595.66;10444429;28;20033;-68
2022/10/09 18:22:12;;;;;;;9.57;2.40;;;;;;;14.12;51.31;100592.41;10441915;28;20484;-70
2022/10/09 18:27:14;;;;;;;6.20;2.20;;;;;;;13.95;51.84;100589.13;10425318;28;20151;-70
2022/10/09 18:32:15;;;;;;;5.25;2.35;;;;;;;13.85;51.96;100594.81;10444841;28;20073;-70
2022/10/09 18:37:18;;;;;;;5.53;2.30;;;;;;;13.77;52.68;100594.13;10426679;28;20140;-70
2022/10/09 18:42:20;;;;;;;3.53;2.20;;;;;;;13.67;52.35;100587.16;10446174;28;20120;-70
2022/10/09 18:47:27;;;;;;;6.38;2.30;;;;;;;13.59;53.01;100583.75;10443046;28;20132;-70
2022/10/09 18:52:29;;;;;;;10.80;5.82;;;;;;;13.46;53.19;100584.41;10444641;28;20101;-71
2022/10/09 18:57:31;;;;;;;12.55;6.18;;;;;;;13.35;53.57;100591.13;10444845;28;20068;-69
2022/10/09 19:02:32;;;;;;;6.88;3.17;;;;;;;13.23;54.15;100582.66;10441645;28;20124;-71
2022/10/09 19:07:34;;;;;;;12.07;3.75;;;;;;;13.11;54.32;100576.03;10441700;28;20052;-71
2022/10/09 19:12:36;;;;;;;8.32;3.60;;;;;;;13.01;55.25;100575.47;10428115;28;20055;-73
2022/10/09 19:17:37;;;;;;;6.25;3.45;;;;;;;12.92;54.95;100576.63;10442591;28;20204;-73
2022/10/09 19:22:39;;;;;;;6.43;3.45;;;;;;;12.82;55.64;100575.03;10446556;28;20112;-71
2022/10/09 19:27:41;;;;;;;8.52;4.53;;;;;;;12.74;55.70;100575.09;10439468;28;20049;-72
2022/10/09 19:32:42;;;;;;;5.32;2.88;;;;;;;12.65;55.60;100576.19;10420633;28;20095;-72
2022/10/09 19:37:43;;;;;;;3.97;2.97;;;;;;;12.52;56.38;100574.16;10439159;28;20051;-72
2022/10/09 19:42:45;;;;;;;5.35;2.58;;;;;;;12.43;56.54;100567.16;10439441;28;20041;-71
2022/10/09 19:47:46;;;;;;;5.22;3.17;;;;;;;12.34;57.15;100563.69;10433618;28;20508;-71
2022/10/09 19:52:54;;;;;;;6.90;3.15;;;;;;;12.20;57.35;100562.63;10440310;28;20048;-69
2022/10/09 19:57:56;;;;;;;9.27;4.55;;;;;;;12.08;57.61;100556.84;10437349;28;20132;-72
2022/10/09 20:02:58;;;;;;;7.78;5.63;;;;;;;12.02;58.02;100560.25;10438013;28;20116;-71
2022/10/09 20:07:59;;;;;;;8.23;4.28;;;;;;;11.96;57.90;100552.88;10425279;28;20127;-72
2022/10/09 20:13:01;;;;;;;10.65;4.18;;;;;;;11.87;58.37;100560.16;10438222;28;20135;-71
2022/10/09 20:18:02;;;;;;;7.35;3.85;;;;;;;11.76;58.63;100555.19;10419677;28;20136;-71
2022/10/09 20:23:04;;;;;;;5.68;3.33;;;;;;;11.66;58.48;100558.09;10438753;28;20041;-71
2022/10/09 20:28:05;;;;;;;5.00;3.25;;;;;;;11.60;58.84;100552.59;10438334;28;20033;-68
2022/10/09 20:33:08;;;;;;;6.57;4.22;;;;;;;11.50;59.31;100539.38;10438631;28;20136;-70
2022/10/09 20:38:09;;;;;;;6.75;4.10;;;;;;;11.38;59.64;100548.88;10415620;28;20168;-72
2022/10/09 20:43:12;;;;;;;7.15;3.97;;;;;;;11.26;59.94;100541.19;10434596;28;20065;-72
2022/10/09 20:48:13;;;;;;;10.60;4.63;;;;;;;11.30;59.72;100549.75;10440196;28;20129;-74
2022/10/09 20:53:15;;;;;;;10.27;4.43;;;;;;;11.22;60.12;100553.31;10411789;28;20136;-71
2022/10/09 20:58:17;;;;;;;8.43;5.30;;;;;;;11.20;60.21;100536.50;10423544;28;20045;-67
2022/10/09 21:03:18;;;;;;;7.82;4.72;;;;;;;11.08;60.10;100544.13;10440599;28;20479;-71
2022/10/09 21:08:20;;;;;;;9.25;3.83;;;;;;;11.04;60.58;100550.03;10439143;28;20071;-72
2022/10/09 21:13:21;;;;;;;7.10;3.58;;;;;;;10.89;61.14;100539.16;10422091;28;20136;-71
2022/10/09 21:18:22;;;;;;;7.28;3.33;;;;;;;10.90;60.76;100541.66;10439435;28;20120;-71
2022/10/09 21:23:24;;;;;;;6.45;3.65;;;;;;;10.90;61.07;100543.53;10439376;28;20079;-70
2022/10/09 21:28:25;;;;;;;7.00;2.38;;;;;;;10.85;61.01;100532.44;10440366;28;20124;-72
2022/10/09 21:33:27;;;;;;;11.68;3.25;;;;;;;10.81;61.30;100533.81;10442488;28;20040;-71
2022/10/09 21:38:28;;;;;;;7.57;4.38;;;;;;;10.81;61.41;100534.63;10421052;28;20076;-71
2022/10/09 21:43:30;;;;;;;7.93;2.72;;;;;;;10.62;61.91;100532.31;10417927;28;20063;-70
2022/10/09 21:48:31;;;;;;;5.20;2.15;;;;;;;10.64;61.74;100530.31;10438778;28;20459;-70
2022/10/09 21:53:33;;;;;;;6.90;2.75;;;;;;;10.66;61.75;100526.44;10441624;28;20095;-71
2022/10/09 21:58:39;;;;;;;7.15;3.20;;;;;;;10.64;61.52;100519.56;10421507;28;20059;-72
2022/10/09 22:03:40;;;;;;;6.90;2.80;;;;;;;10.58;61.94;100515.69;10434951;28;20160;-71
2022/10/09 22:08:43;;;;;;;4.85;2.40;;;;;;;10.57;61.84;100516.72;10438315;28;20041;-70
2022/10/09 22:13:44;;;;;;;6.63;2.50;;;;;;;10.48;62.36;100520.44;10420638;28;20120;-69
2022/10/09 22:18:45;;;;;;;4.43;2.15;;;;;;;10.45;62.40;100516.25;10420728;28;20064;-72
2022/10/09 22:23:48;;;;;;;5.25;2.30;;;;;;;10.44;62.34;100517.25;10425988;28;20051;-70
2022/10/09 22:28:49;;;;;;;8.38;2.88;;;;;;;10.42;62.56;100510.38;10427285;28;20084;-68
2022/10/09 22:33:53;;;;;;;5.15;2.78;;;;;;;10.44;62.43;100508.34;10447269;28;20075;-69
2022/10/09 22:38:57;;;;;;;4.03;2.60;;;;;;;10.42;62.60;100508.50;10442004;28;20073;-66
2022/10/09 22:43:59;;;;;;;6.38;2.45;;;;;;;10.36;62.69;100508.38;10442636;28;20148;-70
2022/10/09 22:49:01;;;;;;;5.85;2.28;;;;;;;10.37;62.59;100494.78;10441267;28;20156;-70
2022/10/09 22:54:03;;;;;;;4.50;2.28;;;;;;;10.38;62.76;100496.44;10444051;28;20163;-71
2022/10/09 22:59:05;;;;;;;4.47;3.28;;;;;;;10.37;62.44;100494.78;10426085;28;20074;-69
2022/10/09 23:04:11;;;;;;;5.43;2.30;;;;;;;10.20;63.21;100490.41;10442171;28;20148;-70
2022/10/09 23:09:14;;;;;;;5.45;2.45;;;;;;;10.22;62.79;100485.69;10442886;28;20136;-69
2022/10/09 23:14:15;;;;;;;6.70;2.60;;;;;;;10.20;62.61;100491.22;10438812;28;20048;-71
2022/10/09 23:19:17;;;;;;;3.58;2.10;;;;;;;10.17;62.91;100486.22;10441989;28;20080;-71
2022/10/09 23:24:18;;;;;;;8.65;2.90;;;;;;;10.13;62.95;100479.50;10439475;28;20554;-71